You are listening to:
LSZH Tower - Zurich, Switzerland

LSZH 190920Z 05010KT 020V090 CAVOK 14/04 Q1026 NOSIG

If stream does not start automatically press the play button